Airfield :
LOGIN :

Register | Disclaimer

   EN    FR    IT 

 










Legend :    VFR   Marginal VFR   IFR   Intensive IFR   Very Intensive IFR
Visi :
Ceiling :
>= 8 km
>= 3000ft
5 to 8 km
1000 to 3000 ft
1500m to 5 km
500 to 1000 ft
800 to 1500m
200 to 500 ft
< 800m
< 200 ft
Symbols :   Thunderstorms  Fog  Heavy snow  Heavy precipitations  Wind > 20 kt
SIGMETs :     Misc.  Thunderstorms  Icing  Turbulence  Mountain Waves  Volcanic Ashes






- Airport Elevation : 1910 ft
- IATA code : RDZ


LFCR - Rodez

CURRENT METAR :
  • 071900Z AUTO 17003KT 4500 BR OVC005 07/07 Q1023 NOSIG

EXPIRED METARs :
  • 071830Z AUTO 16002KT 3200 -RADZ BR OVC006 07/07 Q1023 TEMPO BKN003
  • 071800Z AUTO VRB02KT 6000 OVC006 07/06 Q1023 TEMPO 3000 -DZ BKN003
  • 071730Z AUTO 21003KT 5000 BR OVC005 07/06 Q1023 NOSIG
  • 071700Z AUTO 18003KT 3700 DZ BR OVC003 07/07 Q1023 TEMPO NSW
  • 071630Z AUTO 26003KT 240V310 4800 -DZ BR OVC005 07/07 Q1023 NOSIG

TAF TAF LFCR
Valid from the 07 at 18:00 until the 08 at 18:00 UTC


071700Z 0718/0818 VRB03KT 9999 BKN007
TEMPO 0718/0812 3000 -DZ BKN003
PROB40
TEMPO 0723/0811 0500 FG VV///
BECMG 0812/0814 23010KT BKN010
TEMPO 0814/0818 3000 RA BKN005



MET'MAP, your aeronautical weather chart ! - Copyright ORBIFLY December 2007 - Disclaimer

ORBIFLY MET'MAP TEAM :

Programming & Development : Alexandra Zaïnal
Concept & original design : Baudouin d'Aumeries
Assistance for programming : Marc-Olivier Méhu
Technical & hardware support : Manuel Goepfert

Contact : metmap@orbifly.com




SOURCES & CREDITS :

   NOAA